createdAt,value
2022-09-23T00:01:11.563Z,16.58
2022-09-23T00:02:14.660Z,16.61
2022-09-23T00:03:17.883Z,16.61
2022-09-23T00:04:21.161Z,16.65
2022-09-23T00:05:24.181Z,16.67
2022-09-23T00:06:30.765Z,16.68
2022-09-23T00:07:33.712Z,16.74
2022-09-23T00:08:37.596Z,16.87
2022-09-23T00:09:40.622Z,16.90
2022-09-23T00:10:43.489Z,16.93
2022-09-23T00:11:46.553Z,16.96
2022-09-23T00:12:49.681Z,17.00
2022-09-23T00:13:58.745Z,17.01
2022-09-23T00:15:02.167Z,17.05
2022-09-23T00:16:08.336Z,16.85
2022-09-23T00:17:11.435Z,16.83
2022-09-23T00:18:14.309Z,16.81
2022-09-23T00:19:17.479Z,16.80
2022-09-23T00:20:20.423Z,16.82
2022-09-23T00:21:23.777Z,16.81
2022-09-23T00:22:26.722Z,16.86
2022-09-23T00:23:29.834Z,16.86
2022-09-23T00:24:32.993Z,16.83
2022-09-23T00:25:36.007Z,16.85
2022-09-23T00:26:38.781Z,16.80
2022-09-23T00:27:42.558Z,16.78
2022-09-23T00:28:46.011Z,16.81
2022-09-23T00:29:49.063Z,16.81
2022-09-23T00:30:52.865Z,16.83
2022-09-23T00:31:56.090Z,16.83
2022-09-23T00:32:59.865Z,16.86
2022-09-23T00:34:03.156Z,16.84
2022-09-23T00:35:06.793Z,16.88
2022-09-23T00:36:15.874Z,16.90
2022-09-23T00:37:22.143Z,16.91
2022-09-23T00:38:25.280Z,16.92
2022-09-23T00:39:28.284Z,16.95
2022-09-23T00:40:31.413Z,16.93
2022-09-23T00:41:35.333Z,16.96
2022-09-23T00:42:38.347Z,16.96
2022-09-23T00:43:47.425Z,16.96
2022-09-23T00:45:00.990Z,16.98
2022-09-23T00:46:04.651Z,17.00
2022-09-23T00:48:11.953Z,17.02
2022-09-23T00:49:29.422Z,17.04
2022-09-23T00:50:41.475Z,17.07
2022-09-23T00:52:13.085Z,17.29
2022-09-23T00:53:21.212Z,17.33
2022-09-23T00:54:27.406Z,17.31
2022-09-23T00:55:47.086Z,17.32
2022-09-23T00:56:50.439Z,17.33
2022-09-23T00:57:59.118Z,17.31
2022-09-23T00:59:06.335Z,17.29
2022-09-23T01:00:10.348Z,17.26
2022-09-23T01:01:16.326Z,17.27
2022-09-23T01:02:24.117Z,17.18
2022-09-23T01:03:28.243Z,17.21
2022-09-23T01:04:31.700Z,17.17
2022-09-23T01:05:36.461Z,17.09
2022-09-23T01:06:39.413Z,17.05
2022-09-23T01:07:42.430Z,17.03
2022-09-23T01:08:47.684Z,16.98
2022-09-23T01:09:51.105Z,16.95
2022-09-23T01:11:29.093Z,16.90
2022-09-23T01:13:04.635Z,16.83
2022-09-23T01:14:32.225Z,16.78
2022-09-23T01:15:53.270Z,16.74
2022-09-23T01:17:11.503Z,16.74
2022-09-23T01:19:10.453Z,16.69
2022-09-23T01:20:56.959Z,16.62
2022-09-23T01:22:46.995Z,16.58
2022-09-23T01:24:02.515Z,16.50
2022-09-23T01:25:40.896Z,16.52
2022-09-23T01:27:08.978Z,16.53
2022-09-23T01:28:30.237Z,16.51
2022-09-23T01:30:07.938Z,16.36
2022-09-23T01:31:35.479Z,16.23
2022-09-23T01:33:00.841Z,16.18
2022-09-23T01:34:39.053Z,16.14
2022-09-23T01:36:26.077Z,16.06
2022-09-23T01:38:28.700Z,16.02
2022-09-23T01:39:39.476Z,16.02
2022-09-23T01:41:00.093Z,16.08
2022-09-23T01:42:18.925Z,16.02
2022-09-23T01:43:31.134Z,16.02
2022-09-23T01:44:43.249Z,15.96
2022-09-23T01:45:54.699Z,15.82
2022-09-23T01:47:43.198Z,15.90
2022-09-23T01:49:15.479Z,15.69
2022-09-23T01:50:51.004Z,15.70
2022-09-23T01:52:10.210Z,15.54
2022-09-23T01:53:22.182Z,15.47
2022-09-23T01:54:35.016Z,15.38
2022-09-23T01:55:47.697Z,15.27
2022-09-23T01:57:03.890Z,15.20
2022-09-23T01:58:17.164Z,15.17
2022-09-23T01:59:34.481Z,15.07
2022-09-23T02:00:43.982Z,14.99
2022-09-23T02:02:06.354Z,14.96
2022-09-23T02:03:22.149Z,14.94
2022-09-23T02:04:48.234Z,14.89
2022-09-23T02:05:59.512Z,15.01
2022-09-23T02:07:15.053Z,14.99
2022-09-23T02:08:44.605Z,14.91
2022-09-23T02:10:14.008Z,14.92
2022-09-23T02:11:18.347Z,14.93
2022-09-23T02:12:24.603Z,14.93
2022-09-23T02:13:42.327Z,14.76
2022-09-23T02:14:59.735Z,14.81
2022-09-23T02:16:12.270Z,14.75
2022-09-23T02:17:28.585Z,14.63
2022-09-23T02:18:55.954Z,14.64
2022-09-23T02:20:05.829Z,14.72
2022-09-23T02:21:11.396Z,14.63
2022-09-23T02:22:46.721Z,14.62
2022-09-23T02:23:59.370Z,14.57
2022-09-23T02:25:03.954Z,14.71
2022-09-23T02:26:23.335Z,14.60
2022-09-23T02:28:16.937Z,14.67
2022-09-23T02:29:53.992Z,14.67
2022-09-23T02:31:12.051Z,14.43
2022-09-23T02:32:25.939Z,14.34
2022-09-23T02:33:45.020Z,14.28
2022-09-23T02:35:13.259Z,14.26
2022-09-23T02:36:34.660Z,14.19
2022-09-23T02:38:02.690Z,14.15
2022-09-23T02:39:12.340Z,14.13
2022-09-23T02:41:04.962Z,14.10
2022-09-23T02:42:15.583Z,14.06
2022-09-23T02:44:07.705Z,14.01
2022-09-23T02:45:10.769Z,13.97
2022-09-23T02:46:13.806Z,13.95
2022-09-23T02:47:24.752Z,13.99
2022-09-23T02:48:46.494Z,13.97
2022-09-23T02:49:53.666Z,13.95
2022-09-23T02:50:57.730Z,13.92
2022-09-23T02:52:07.677Z,13.93
2022-09-23T02:53:10.953Z,13.91
2022-09-23T02:54:20.813Z,13.92
2022-09-23T02:55:24.542Z,13.88
2022-09-23T02:56:29.027Z,13.87
2022-09-23T02:57:32.429Z,13.85
2022-09-23T02:58:36.809Z,13.86
2022-09-23T02:59:39.746Z,13.86
2022-09-23T03:01:37.378Z,13.84
2022-09-23T03:03:12.303Z,13.83
2022-09-23T03:04:31.674Z,13.78
2022-09-23T03:05:45.600Z,13.75
2022-09-23T03:07:19.367Z,13.70
2022-09-23T03:08:51.142Z,13.68
2022-09-23T03:09:57.400Z,13.64
2022-09-23T03:11:13.637Z,13.61
2022-09-23T03:12:42.197Z,13.60
2022-09-23T03:14:16.970Z,13.58
2022-09-23T03:15:42.969Z,13.52
2022-09-23T03:17:10.615Z,13.45
2022-09-23T03:18:35.214Z,13.45
2022-09-23T03:20:10.876Z,13.43
2022-09-23T03:21:45.513Z,13.39
2022-09-23T03:22:57.105Z,13.35
2022-09-23T03:24:04.604Z,13.35
2022-09-23T03:25:16.041Z,13.34
2022-09-23T03:26:29.327Z,13.50
2022-09-23T03:27:34.804Z,13.61
2022-09-23T03:28:42.256Z,13.59
2022-09-23T03:29:48.721Z,13.56
2022-09-23T03:30:54.389Z,13.53
2022-09-23T03:31:58.547Z,13.36
2022-09-23T03:33:06.326Z,13.25
2022-09-23T03:34:32.243Z,12.95
2022-09-23T03:36:01.895Z,12.72
2022-09-23T03:37:23.650Z,12.63
2022-09-23T03:38:35.135Z,12.55
2022-09-23T03:39:50.103Z,12.54
2022-09-23T03:40:56.771Z,12.54
2022-09-23T03:42:08.004Z,12.54
2022-09-23T03:43:13.973Z,12.55
2022-09-23T03:44:20.831Z,12.60
2022-09-23T03:45:31.089Z,12.58
2022-09-23T03:46:35.522Z,12.57
2022-09-23T03:47:39.490Z,12.54
2022-09-23T03:48:42.502Z,12.53
2022-09-23T03:49:49.031Z,12.50
2022-09-23T03:50:52.050Z,12.50
2022-09-23T03:51:56.162Z,12.46
2022-09-23T03:52:59.374Z,12.44
2022-09-23T03:54:02.531Z,12.72
2022-09-23T03:55:07.073Z,12.74
2022-09-23T03:56:11.815Z,12.62
2022-09-23T03:57:15.017Z,12.63
2022-09-23T03:58:18.103Z,12.66
2022-09-23T03:59:21.089Z,12.78
2022-09-23T04:00:24.005Z,12.80
2022-09-23T04:01:27.308Z,12.88
2022-09-23T04:02:30.243Z,12.84
2022-09-23T04:03:33.203Z,13.11
2022-09-23T04:04:40.262Z,13.17
2022-09-23T04:05:44.901Z,13.22
2022-09-23T04:06:48.052Z,13.24
2022-09-23T04:07:51.192Z,13.02
2022-09-23T04:08:54.032Z,12.91
2022-09-23T04:09:56.983Z,12.90
2022-09-23T04:11:04.805Z,12.86
2022-09-23T04:12:13.251Z,12.84
2022-09-23T04:13:17.263Z,12.70
2022-09-23T04:14:21.757Z,12.78
2022-09-23T04:15:24.802Z,12.64
2022-09-23T04:16:28.003Z,12.60
2022-09-23T04:17:30.992Z,12.56
2022-09-23T04:18:34.063Z,12.71
2022-09-23T04:19:37.301Z,12.69
2022-09-23T04:20:40.097Z,12.77
2022-09-23T04:21:44.516Z,12.71
2022-09-23T04:22:47.491Z,12.59
2022-09-23T04:23:50.425Z,12.60
2022-09-23T04:24:53.212Z,12.61
2022-09-23T04:25:56.195Z,12.71
2022-09-23T04:26:59.189Z,12.75
2022-09-23T04:28:02.715Z,12.77
2022-09-23T04:29:06.486Z,12.63
2022-09-23T04:30:10.039Z,12.66
2022-09-23T04:31:13.022Z,12.75
2022-09-23T04:32:15.988Z,12.66
2022-09-23T04:33:18.921Z,12.68
2022-09-23T04:34:22.027Z,12.57
2022-09-23T04:35:24.965Z,12.52
2022-09-23T04:36:29.272Z,12.50
2022-09-23T04:37:32.321Z,12.49
2022-09-23T04:38:35.935Z,12.52
2022-09-23T04:39:38.740Z,12.49
2022-09-23T04:40:41.761Z,12.50
2022-09-23T04:41:46.133Z,12.60
2022-09-23T04:42:50.540Z,12.54
2022-09-23T04:43:53.726Z,12.57
2022-09-23T04:44:56.970Z,12.54
2022-09-23T04:46:02.450Z,12.49
2022-09-23T04:47:05.489Z,12.48
2022-09-23T04:48:09.663Z,12.51
2022-09-23T04:49:13.127Z,12.59
2022-09-23T04:50:16.109Z,12.61
2022-09-23T04:51:22.481Z,12.57
2022-09-23T04:52:25.522Z,12.57
2022-09-23T04:53:29.030Z,12.60
2022-09-23T04:54:33.052Z,12.61
2022-09-23T04:55:36.515Z,12.64
2022-09-23T04:56:39.907Z,12.76
2022-09-23T04:57:42.804Z,12.79
2022-09-23T04:58:46.938Z,12.81
2022-09-23T04:59:49.859Z,12.84
2022-09-23T05:00:52.891Z,12.90
2022-09-23T05:01:55.872Z,12.94
2022-09-23T05:02:59.029Z,12.97
2022-09-23T05:04:06.894Z,13.01
2022-09-23T05:05:09.714Z,13.07
2022-09-23T05:06:14.581Z,13.10
2022-09-23T05:07:19.156Z,13.14
2022-09-23T05:08:22.288Z,13.21
2022-09-23T05:09:25.182Z,13.31
2022-09-23T05:10:28.196Z,13.38
2022-09-23T05:11:31.767Z,13.44
2022-09-23T05:12:34.783Z,13.58
2022-09-23T05:13:37.754Z,13.72
2022-09-23T05:14:40.710Z,13.65
2022-09-23T05:15:43.657Z,13.67
2022-09-23T05:16:46.565Z,13.71
2022-09-23T05:17:49.377Z,13.80
2022-09-23T05:18:54.110Z,13.80
2022-09-23T05:19:58.653Z,13.86
2022-09-23T05:21:02.768Z,13.90
2022-09-23T05:22:06.008Z,13.97
2022-09-23T05:23:09.269Z,13.95
2022-09-23T05:24:13.035Z,14.00
2022-09-23T05:25:16.096Z,13.97
2022-09-23T05:26:19.124Z,13.97
2022-09-23T05:27:22.178Z,14.03
2022-09-23T05:28:32.960Z,14.11
2022-09-23T05:29:36.205Z,14.16
2022-09-23T05:30:38.967Z,14.29
2022-09-23T05:31:41.908Z,14.39
2022-09-23T05:32:45.687Z,14.68
2022-09-23T05:33:55.691Z,14.96
2022-09-23T05:34:58.567Z,15.21
2022-09-23T05:36:03.218Z,15.48
2022-09-23T05:37:06.145Z,15.70
2022-09-23T05:38:09.713Z,15.91
2022-09-23T05:39:12.752Z,16.13
2022-09-23T05:40:15.709Z,16.29
2022-09-23T05:41:23.040Z,16.38
2022-09-23T05:42:26.281Z,16.45
2022-09-23T05:43:29.806Z,16.52
2022-09-23T05:44:33.037Z,16.63
2022-09-23T05:45:36.206Z,16.66
2022-09-23T05:46:39.513Z,16.73
2022-09-23T05:47:43.241Z,16.77
2022-09-23T05:48:47.664Z,16.84
2022-09-23T05:49:59.588Z,16.88
2022-09-23T05:51:04.335Z,17.45
2022-09-23T05:52:07.537Z,17.93
2022-09-23T05:53:12.102Z,18.59
2022-09-23T05:54:15.084Z,19.25
2022-09-23T05:55:18.392Z,19.88
2022-09-23T05:56:24.737Z,20.57
2022-09-23T05:57:27.963Z,21.37
2022-09-23T05:58:30.869Z,22.13
2022-09-23T05:59:33.951Z,22.92
2022-09-23T06:00:38.706Z,23.41
2022-09-23T06:01:41.703Z,24.01
2022-09-23T06:02:44.657Z,24.73
2022-09-23T06:03:49.246Z,25.40
2022-09-23T06:04:52.080Z,26.13
2022-09-23T06:05:56.095Z,26.60
2022-09-23T06:07:02.910Z,27.29
2022-09-23T06:08:07.784Z,28.17
2022-09-23T06:09:13.851Z,28.85
2022-09-23T06:10:16.878Z,29.55
2022-09-23T06:11:21.680Z,30.09
2022-09-23T06:12:25.298Z,30.28
2022-09-23T06:13:28.162Z,31.11
2022-09-23T06:14:31.054Z,31.74
2022-09-23T06:15:34.634Z,32.24
2022-09-23T06:16:37.708Z,32.72
2022-09-23T06:17:40.598Z,33.25
2022-09-23T06:18:45.909Z,33.44
2022-09-23T06:19:48.728Z,33.93
2022-09-23T06:20:52.212Z,34.11
2022-09-23T06:21:55.411Z,33.98
2022-09-23T06:23:10.101Z,33.63
2022-09-23T06:24:17.545Z,33.76
2022-09-23T06:25:23.058Z,33.84
2022-09-23T06:26:26.556Z,33.83
2022-09-23T06:27:29.288Z,34.25
2022-09-23T06:28:35.069Z,34.53
2022-09-23T06:29:39.135Z,34.89
2022-09-23T06:30:42.759Z,35.01
2022-09-23T06:31:45.817Z,34.98
2022-09-23T06:32:53.826Z,35.35
2022-09-23T06:34:08.174Z,35.42
2022-09-23T06:35:25.510Z,35.55
2022-09-23T06:36:41.164Z,35.74
2022-09-23T06:37:46.477Z,36.01
2022-09-23T06:38:49.513Z,36.11
2022-09-23T06:39:54.807Z,36.50
2022-09-23T06:40:58.711Z,36.52
2022-09-23T06:42:01.782Z,36.76
2022-09-23T06:43:04.729Z,37.25
2022-09-23T06:44:07.758Z,37.76
2022-09-23T06:45:15.333Z,37.80
2022-09-23T06:46:18.990Z,37.81
2022-09-23T06:47:22.273Z,38.06
2022-09-23T06:48:26.393Z,38.33
2022-09-23T06:49:29.247Z,38.63
2022-09-23T06:50:32.086Z,38.22
2022-09-23T06:51:35.188Z,37.96
2022-09-23T06:52:39.012Z,38.59
2022-09-23T06:53:41.985Z,39.01
2022-09-23T06:54:45.298Z,39.08
2022-09-23T06:55:48.396Z,39.36
2022-09-23T06:56:51.578Z,39.61
2022-09-23T06:57:58.069Z,39.84
2022-09-23T06:59:01.458Z,40.38
2022-09-23T07:00:05.183Z,40.76
2022-09-23T07:01:16.312Z,41.10
2022-09-23T07:02:19.576Z,40.87
2022-09-23T07:03:23.071Z,41.15
2022-09-23T07:04:29.328Z,41.74
2022-09-23T07:05:32.528Z,41.96
2022-09-23T07:06:35.767Z,42.15
2022-09-23T07:07:39.497Z,42.01
2022-09-23T07:08:47.515Z,42.04
2022-09-23T07:09:50.385Z,42.18
2022-09-23T07:10:55.196Z,42.38
2022-09-23T07:11:58.156Z,42.78
2022-09-23T07:13:04.909Z,42.88
2022-09-23T07:14:07.837Z,42.68
2022-09-23T07:15:11.610Z,43.09
2022-09-23T07:16:16.931Z,43.78
2022-09-23T07:17:20.773Z,44.47
2022-09-23T07:18:25.597Z,44.84
2022-09-23T07:19:28.688Z,44.74
2022-09-23T07:20:32.164Z,44.97
2022-09-23T07:21:35.165Z,45.18
2022-09-23T07:22:38.847Z,45.43
2022-09-23T07:23:48.063Z,45.19
2022-09-23T07:24:52.081Z,45.52
2022-09-23T07:25:59.064Z,46.00
2022-09-23T07:27:02.733Z,46.22
2022-09-23T07:28:07.186Z,46.52
2022-09-23T07:29:14.332Z,46.42
2022-09-23T07:30:24.854Z,46.72
2022-09-23T07:31:38.597Z,45.87
2022-09-23T07:32:48.626Z,44.99
2022-09-23T07:33:57.935Z,44.40
2022-09-23T07:35:00.741Z,45.13
2022-09-23T07:36:10.477Z,45.99
2022-09-23T07:37:15.291Z,46.09
2022-09-23T07:38:18.354Z,45.98
2022-09-23T07:39:21.418Z,45.81
2022-09-23T07:40:24.428Z,45.90
2022-09-23T07:41:29.127Z,46.69
2022-09-23T07:42:32.052Z,46.89
2022-09-23T07:43:35.510Z,47.17
2022-09-23T07:44:39.437Z,47.22
2022-09-23T07:45:43.670Z,47.47
2022-09-23T07:46:47.002Z,47.78
2022-09-23T07:47:50.000Z,46.87
2022-09-23T07:48:53.375Z,47.74
2022-09-23T07:49:56.537Z,47.80
2022-09-23T07:51:00.262Z,48.35
2022-09-23T07:52:04.863Z,48.43
2022-09-23T07:53:08.682Z,48.49
2022-09-23T07:54:15.186Z,48.14
2022-09-23T07:55:21.020Z,49.04
2022-09-23T07:56:29.758Z,48.99
2022-09-23T07:57:33.785Z,49.26
2022-09-23T07:58:36.994Z,48.68
2022-09-23T07:59:40.788Z,49.18
2022-09-23T08:00:43.991Z,49.01
2022-09-23T08:01:50.839Z,49.39
2022-09-23T08:02:54.202Z,49.78
2022-09-23T08:04:00.167Z,49.90
2022-09-23T08:05:03.642Z,50.44
2022-09-23T08:06:12.801Z,49.79
2022-09-23T08:07:16.497Z,49.86
2022-09-23T08:08:19.498Z,50.47
2022-09-23T08:09:28.387Z,50.73
2022-09-23T08:10:32.217Z,49.83
2022-09-23T08:11:36.496Z,48.73
2022-09-23T08:12:39.804Z,48.10
2022-09-23T08:13:43.091Z,48.46
2022-09-23T08:14:46.129Z,47.78
2022-09-23T08:15:53.256Z,47.63
2022-09-23T08:16:58.606Z,48.56
2022-09-23T08:18:01.675Z,48.87
2022-09-23T08:20:32.519Z,49.71
2022-09-23T08:21:35.660Z,50.57
2022-09-23T08:22:38.693Z,51.11
2022-09-23T08:23:41.577Z,51.61
2022-09-23T08:24:44.688Z,51.18
2022-09-23T08:25:48.301Z,51.68
2022-09-23T08:26:53.405Z,51.62
2022-09-23T08:27:57.110Z,51.13
2022-09-23T08:29:00.476Z,51.36
2022-09-23T08:30:03.531Z,51.88
2022-09-23T08:31:06.396Z,51.29
2022-09-23T08:32:09.368Z,52.01
2022-09-23T08:33:12.864Z,52.61
2022-09-23T08:34:18.295Z,53.00
2022-09-23T08:35:21.167Z,53.12
2022-09-23T08:36:25.383Z,53.30
2022-09-23T08:37:28.565Z,53.36
2022-09-23T08:38:31.739Z,53.50
2022-09-23T08:39:34.919Z,53.50
2022-09-23T08:40:43.164Z,53.68
2022-09-23T08:42:17.409Z,53.45
2022-09-23T08:43:32.866Z,52.49
2022-09-23T08:44:54.300Z,53.04
2022-09-23T08:46:08.759Z,52.97
2022-09-23T08:47:29.907Z,53.20
2022-09-23T08:48:43.650Z,53.57
2022-09-23T08:50:08.834Z,53.62
2022-09-23T08:51:25.882Z,53.97
2022-09-23T08:53:02.863Z,53.54
2022-09-23T08:54:07.638Z,53.85
2022-09-23T08:55:15.164Z,53.56
2022-09-23T08:56:22.748Z,53.84
2022-09-23T08:58:02.260Z,54.61
2022-09-23T08:59:29.243Z,55.28
2022-09-23T09:00:42.304Z,55.87
2022-09-23T09:01:53.237Z,55.38
2022-09-23T09:02:56.664Z,54.38
2022-09-23T09:04:12.528Z,54.88
2022-09-23T09:05:25.367Z,55.47
2022-09-23T09:07:31.847Z,56.14
2022-09-23T09:08:33.034Z,56.87
2022-09-23T09:10:00.035Z,57.22
2022-09-23T09:11:05.133Z,57.46
2022-09-23T09:12:43.664Z,57.89
2022-09-23T09:14:14.692Z,58.36
2022-09-23T09:15:25.478Z,58.04
2022-09-23T09:16:59.875Z,57.75
2022-09-23T09:18:12.959Z,58.03
2022-09-23T09:19:32.395Z,58.81
2022-09-23T09:21:11.588Z,58.56
2022-09-23T09:22:39.904Z,56.79
2022-09-23T09:23:56.716Z,53.61
2022-09-23T09:25:15.319Z,50.73
2022-09-23T09:26:28.708Z,49.39
2022-09-23T09:27:31.896Z,50.68
2022-09-23T09:28:51.295Z,51.87
2022-09-23T09:29:56.509Z,53.00
2022-09-23T09:31:25.681Z,54.62
2022-09-23T09:32:47.267Z,56.36
2022-09-23T09:34:33.452Z,55.99
2022-09-23T09:36:09.012Z,57.00
2022-09-23T09:37:47.092Z,58.16
2022-09-23T09:38:51.353Z,57.26
2022-09-23T09:39:56.734Z,58.77
2022-09-23T09:41:11.650Z,57.63
2022-09-23T09:42:24.640Z,58.49
2022-09-23T09:43:27.695Z,59.47
2022-09-23T09:44:52.761Z,56.17
2022-09-23T09:46:24.936Z,54.32
2022-09-23T09:48:21.061Z,52.95
2022-09-23T09:50:14.048Z,53.63
2022-09-23T09:51:23.549Z,51.59
2022-09-23T09:52:29.734Z,49.30
2022-09-23T09:53:35.942Z,49.32
2022-09-23T09:54:39.761Z,50.18
2022-09-23T09:55:42.808Z,47.54
2022-09-23T09:56:45.792Z,48.77
2022-09-23T09:58:04.189Z,51.52
2022-09-23T09:59:16.396Z,52.72
2022-09-23T10:00:27.921Z,54.30
2022-09-23T10:01:34.176Z,56.46
2022-09-23T10:02:39.958Z,55.91
2022-09-23T10:03:44.905Z,56.00
2022-09-23T10:05:06.820Z,55.85
2022-09-23T10:06:21.539Z,53.19
2022-09-23T10:07:29.327Z,52.43
2022-09-23T10:08:36.038Z,54.38
2022-09-23T10:09:43.048Z,50.91
2022-09-23T10:11:18.042Z,47.87
2022-09-23T10:12:26.106Z,46.20
2022-09-23T10:13:30.728Z,47.87
2022-09-23T10:14:33.713Z,49.17
2022-09-23T10:15:45.420Z,50.58
2022-09-23T10:17:05.423Z,52.00
2022-09-23T10:18:32.048Z,53.03
2022-09-23T10:19:44.864Z,52.87
2022-09-23T10:20:48.789Z,54.24
2022-09-23T10:21:56.884Z,55.26
2022-09-23T10:23:14.400Z,56.86
2022-09-23T10:24:25.971Z,57.32
2022-09-23T10:25:29.189Z,57.04
2022-09-23T10:26:43.415Z,54.32
2022-09-23T10:27:46.952Z,52.07
2022-09-23T10:28:56.400Z,54.24
2022-09-23T10:30:04.771Z,54.85
2022-09-23T10:31:24.798Z,55.84
2022-09-23T10:32:44.011Z,55.07
2022-09-23T10:33:54.946Z,57.00
2022-09-23T10:35:11.321Z,55.97
2022-09-23T10:36:18.799Z,55.86
2022-09-23T10:37:36.029Z,56.26
2022-09-23T10:38:39.071Z,56.37
2022-09-23T10:40:01.033Z,55.59
2022-09-23T10:41:32.015Z,54.42
2022-09-23T10:43:44.176Z,55.89
2022-09-23T10:45:37.536Z,54.86
2022-09-23T10:47:17.724Z,55.37
2022-09-23T10:49:27.659Z,55.48
2022-09-23T10:50:48.820Z,49.45
2022-09-23T10:52:06.723Z,47.09
2022-09-23T10:54:02.468Z,43.76
2022-09-23T10:55:14.448Z,42.17
2022-09-23T10:56:27.993Z,40.37
2022-09-23T10:57:45.931Z,43.81
2022-09-23T10:59:18.878Z,45.35
2022-09-23T11:00:52.192Z,47.31
2022-09-23T11:02:45.188Z,48.88
2022-09-23T11:04:21.974Z,50.39
2022-09-23T11:05:50.879Z,51.40
2022-09-23T11:07:27.695Z,51.42
2022-09-23T11:08:37.506Z,48.92
2022-09-23T11:10:02.158Z,46.72
2022-09-23T11:11:39.572Z,43.80
2022-09-23T11:12:49.091Z,46.55
2022-09-23T11:14:17.273Z,47.23
2022-09-23T11:15:45.891Z,-143.95
2022-09-23T11:17:49.621Z,-143.95
2022-09-23T11:19:23.296Z,-143.95
2022-09-23T11:20:47.941Z,-143.95
2022-09-23T11:22:08.438Z,-143.95
2022-09-23T11:23:18.730Z,-143.95
2022-09-23T11:25:00.180Z,-143.95
2022-09-23T11:26:43.059Z,-143.95
2022-09-23T11:28:06.677Z,-143.95
2022-09-23T11:29:42.945Z,-143.95
2022-09-23T11:31:06.814Z,-143.95
2022-09-23T11:32:38.424Z,-143.95
2022-09-23T11:34:10.011Z,-143.95
2022-09-23T11:35:29.603Z,-143.95
2022-09-23T11:36:46.757Z,-143.95
2022-09-23T11:38:07.523Z,-143.95
2022-09-23T11:39:29.228Z,-143.95
2022-09-23T11:40:38.825Z,-143.95
2022-09-23T11:41:46.382Z,-143.95
2022-09-23T11:43:23.592Z,-143.95
2022-09-23T11:44:49.974Z,-143.95
2022-09-23T11:46:27.195Z,-143.95
2022-09-23T11:47:43.189Z,-143.95
2022-09-23T11:48:51.784Z,-143.95
2022-09-23T11:50:25.879Z,-143.95
2022-09-23T11:52:06.705Z,-143.95
2022-09-23T11:53:30.855Z,-143.95
2022-09-23T11:54:47.310Z,-143.95
2022-09-23T11:56:05.831Z,-143.95
2022-09-23T11:57:23.205Z,-143.95
2022-09-23T11:58:35.244Z,-143.95
2022-09-23T11:59:55.079Z,-143.95
2022-09-23T12:01:13.541Z,-143.95
2022-09-23T12:02:24.661Z,-143.95
2022-09-23T12:03:58.648Z,-143.95
2022-09-23T12:05:16.877Z,-143.95
2022-09-23T12:06:28.088Z,-143.95
2022-09-23T12:08:15.852Z,-143.95
2022-09-23T12:09:57.678Z,-143.95
2022-09-23T12:11:16.141Z,-143.95
2022-09-23T12:13:00.129Z,-143.95
2022-09-23T12:14:33.699Z,-143.95
2022-09-23T12:15:52.052Z,-143.95
2022-09-23T12:17:22.192Z,-143.95
2022-09-23T12:18:42.974Z,-143.95
2022-09-23T12:20:31.431Z,-143.95
2022-09-23T12:22:04.445Z,-143.95
2022-09-23T12:23:37.360Z,-143.95
2022-09-23T12:24:54.633Z,-143.95
2022-09-23T12:26:06.944Z,-143.95
2022-09-23T12:27:21.929Z,-143.95
2022-09-23T12:28:45.129Z,-143.95
2022-09-23T12:29:52.702Z,-143.95
2022-09-23T12:30:59.353Z,-143.95
2022-09-23T12:32:09.993Z,-143.95
2022-09-23T12:33:32.487Z,-143.95
2022-09-23T12:34:49.056Z,-143.95
2022-09-23T12:36:04.843Z,-143.95
2022-09-23T12:37:07.885Z,-143.95
2022-09-23T12:38:36.532Z,-143.95
2022-09-23T12:39:39.920Z,-143.95
2022-09-23T12:40:44.943Z,-143.95
2022-09-23T12:41:54.113Z,-143.95
2022-09-23T12:43:01.270Z,-143.95
2022-09-23T12:44:15.905Z,-143.95
2022-09-23T12:45:32.839Z,-143.95
2022-09-23T12:46:35.948Z,-143.95
2022-09-23T12:47:40.046Z,-143.95
2022-09-23T12:49:01.680Z,-143.95
2022-09-23T12:51:09.356Z,-143.95
2022-09-23T12:52:27.497Z,-143.95
2022-09-23T12:53:36.211Z,-143.95
2022-09-23T12:54:41.119Z,-143.95
2022-09-23T12:55:47.030Z,-143.95
2022-09-23T12:56:56.019Z,-143.95
2022-09-23T12:57:59.082Z,-143.95
2022-09-23T12:59:16.714Z,-143.95
2022-09-23T13:00:29.854Z,-143.95
2022-09-23T13:01:39.125Z,-143.95
2022-09-23T13:02:47.871Z,-143.95
2022-09-23T13:04:17.775Z,-143.95
2022-09-23T13:05:43.833Z,-143.95
2022-09-23T13:07:06.395Z,-143.95
2022-09-23T13:08:25.057Z,-143.95
2022-09-23T13:09:45.342Z,-143.95
2022-09-23T13:11:01.376Z,-143.95
2022-09-23T13:12:15.646Z,-143.95
2022-09-23T13:13:36.033Z,-143.95
2022-09-23T13:14:45.050Z,-143.95
2022-09-23T13:15:48.797Z,-143.95
2022-09-23T13:16:52.104Z,-143.95
2022-09-23T13:18:20.377Z,-143.95
2022-09-23T13:19:26.194Z,-143.95
2022-09-23T13:20:38.444Z,-143.95
2022-09-23T13:21:47.435Z,-143.95
2022-09-23T13:22:51.911Z,-143.95
2022-09-23T13:24:13.105Z,-143.95
2022-09-23T13:25:27.483Z,-143.95
2022-09-23T13:26:32.483Z,-143.95
2022-09-23T13:27:36.757Z,-143.95
2022-09-23T13:28:56.976Z,-143.95
2022-09-23T13:30:26.450Z,-143.95
2022-09-23T13:31:30.296Z,-143.95
2022-09-23T13:32:49.818Z,-143.95
2022-09-23T13:34:01.854Z,-143.95
2022-09-23T13:35:39.176Z,-143.95
2022-09-23T13:36:48.245Z,-143.95
2022-09-23T13:37:51.352Z,-143.95
2022-09-23T13:39:13.184Z,-143.95
2022-09-23T13:40:19.743Z,-143.95
2022-09-23T13:41:28.769Z,-143.95
2022-09-23T13:42:32.620Z,-143.95
2022-09-23T13:43:46.409Z,-143.95
2022-09-23T13:44:49.715Z,-143.95
2022-09-23T13:45:52.832Z,-143.95
2022-09-23T13:46:59.908Z,-143.95
2022-09-23T13:48:10.584Z,-143.95
2022-09-23T13:49:26.190Z,-143.95
2022-09-23T13:50:34.689Z,-143.95
2022-09-23T13:51:38.408Z,-143.95
2022-09-23T13:52:41.770Z,-143.95
2022-09-23T13:53:54.677Z,-143.95
2022-09-23T13:54:57.820Z,-143.95
2022-09-23T13:56:15.160Z,-143.95
2022-09-23T13:57:34.974Z,-143.95
2022-09-23T13:58:38.694Z,-143.95
2022-09-23T13:59:42.544Z,-143.95
2022-09-23T14:00:46.374Z,-143.95
2022-09-23T14:01:49.455Z,-143.95
2022-09-23T14:02:55.489Z,-143.95
2022-09-23T14:03:59.223Z,-143.95
2022-09-23T14:05:12.704Z,-143.95
2022-09-23T14:06:17.058Z,-143.95
2022-09-23T14:07:22.373Z,-143.95
2022-09-23T14:08:26.399Z,-143.95
2022-09-23T14:09:30.540Z,-143.95
2022-09-23T14:10:34.298Z,-143.95
2022-09-23T14:11:37.548Z,-143.95
2022-09-23T14:12:41.398Z,-143.95
2022-09-23T14:13:49.173Z,-143.95
2022-09-23T14:14:53.192Z,-143.95
2022-09-23T14:16:00.098Z,-143.95
2022-09-23T14:17:05.666Z,-143.95
2022-09-23T14:18:08.711Z,-143.95
2022-09-23T14:19:19.716Z,-143.95
2022-09-23T14:20:23.799Z,-143.95
2022-09-23T14:21:27.630Z,-143.95
2022-09-23T14:22:31.123Z,-143.95
2022-09-23T14:23:34.097Z,-143.95
2022-09-23T14:24:38.827Z,-143.95
2022-09-23T14:25:47.394Z,-143.95
2022-09-23T14:26:57.957Z,-143.95
2022-09-23T14:28:01.337Z,-143.95
2022-09-23T14:29:04.490Z,-143.95
2022-09-23T14:30:20.277Z,-143.95
2022-09-23T14:31:23.986Z,-143.95
2022-09-23T14:32:29.347Z,-143.95
2022-09-23T14:33:34.104Z,-143.95
2022-09-23T14:35:01.215Z,-143.95
2022-09-23T14:36:29.528Z,-143.95
2022-09-23T14:38:03.219Z,-143.95
2022-09-23T14:39:12.359Z,-143.95
2022-09-23T14:40:31.429Z,-143.95
2022-09-23T14:41:39.023Z,-143.95
2022-09-23T14:43:15.861Z,-143.95
2022-09-23T14:44:25.184Z,-143.95
2022-09-23T14:45:36.213Z,-143.95
2022-09-23T14:46:40.072Z,-143.95
2022-09-23T14:47:53.423Z,-143.95
2022-09-23T14:49:17.427Z,-143.95
2022-09-23T14:50:37.191Z,-143.95
2022-09-23T14:51:43.190Z,-143.95
2022-09-23T14:52:52.820Z,-143.95
2022-09-23T14:53:56.006Z,-143.95
2022-09-23T14:55:00.872Z,-143.95
2022-09-23T14:56:06.574Z,-143.95
2022-09-23T14:57:29.775Z,-143.95
2022-09-23T14:58:56.351Z,-143.95
2022-09-23T15:00:06.395Z,-143.95
2022-09-23T15:01:31.476Z,-143.95
2022-09-23T15:02:43.049Z,-143.95
2022-09-23T15:03:49.948Z,-143.95
2022-09-23T15:05:07.999Z,-143.95
2022-09-23T15:06:12.841Z,-143.95
2022-09-23T15:07:20.385Z,-143.95
2022-09-23T15:08:27.215Z,-143.95
2022-09-23T15:09:41.818Z,-143.95
2022-09-23T15:10:46.203Z,-143.95
2022-09-23T15:11:53.214Z,-143.95
2022-09-23T15:13:07.605Z,-143.95
2022-09-23T15:14:36.118Z,-143.95
2022-09-23T15:15:35.678Z,-143.95
2022-09-23T15:16:39.794Z,-143.95